createdAt,value
2023-03-20T00:02:07.199Z,6.27
2023-03-20T00:04:58.861Z,6.17
2023-03-20T00:07:47.120Z,5.98
2023-03-20T00:10:18.328Z,5.80
2023-03-20T00:12:48.564Z,5.80
2023-03-20T00:15:27.579Z,5.76
2023-03-20T00:17:55.769Z,5.74
2023-03-20T00:20:24.893Z,5.47
2023-03-20T00:22:54.569Z,5.90
2023-03-20T00:25:25.851Z,5.76
2023-03-20T00:27:54.014Z,5.69
2023-03-20T00:30:26.201Z,5.43
2023-03-20T00:32:54.361Z,5.33
2023-03-20T00:35:25.752Z,5.41
2023-03-20T00:37:54.591Z,5.26
2023-03-20T00:40:28.191Z,5.42
2023-03-20T00:43:00.684Z,5.58
2023-03-20T00:45:30.030Z,5.57
2023-03-20T00:47:58.646Z,5.60
2023-03-20T00:50:29.809Z,5.61
2023-03-20T00:52:58.644Z,5.24
2023-03-20T00:55:30.438Z,5.62
2023-03-20T00:58:01.723Z,5.55
2023-03-20T01:00:47.449Z,5.46
2023-03-20T01:03:18.897Z,5.45
2023-03-20T01:05:47.851Z,5.49
2023-03-20T01:08:17.511Z,5.14
2023-03-20T01:10:48.121Z,5.29
2023-03-20T01:13:21.971Z,5.25
2023-03-20T01:15:51.517Z,5.31
2023-03-20T01:18:21.045Z,5.37
2023-03-20T01:20:49.381Z,5.37
2023-03-20T01:23:17.462Z,5.39
2023-03-20T01:25:47.051Z,5.32
2023-03-20T01:28:18.349Z,5.23
2023-03-20T01:30:47.248Z,5.15
2023-03-20T01:33:17.341Z,5.14
2023-03-20T01:35:45.943Z,4.01
2023-03-20T01:38:16.346Z,5.17
2023-03-20T01:40:52.155Z,4.82
2023-03-20T01:43:22.037Z,5.33
2023-03-20T01:45:58.778Z,5.36
2023-03-20T01:48:36.741Z,5.29
2023-03-20T01:51:05.231Z,5.24
2023-03-20T01:53:33.085Z,5.25
2023-03-20T01:56:02.572Z,5.04
2023-03-20T01:58:37.439Z,4.82
2023-03-20T02:01:06.969Z,4.77
2023-03-20T02:03:35.218Z,4.77
2023-03-20T02:06:03.127Z,4.61
2023-03-20T02:08:32.945Z,4.27
2023-03-20T02:11:03.270Z,4.68
2023-03-20T02:13:32.735Z,4.51
2023-03-20T02:16:04.778Z,4.71
2023-03-20T02:18:33.380Z,4.70
2023-03-20T02:21:38.721Z,4.57
2023-03-20T02:24:37.316Z,4.22
2023-03-20T02:27:14.759Z,4.47
2023-03-20T02:30:19.225Z,4.57
2023-03-20T02:33:24.428Z,4.56
2023-03-20T02:36:27.742Z,4.53
2023-03-20T02:39:19.643Z,4.49
2023-03-20T02:41:54.425Z,4.57
2023-03-20T02:44:32.515Z,4.36
2023-03-20T02:47:04.672Z,4.38
2023-03-20T02:49:56.571Z,4.34
2023-03-20T02:52:33.981Z,4.36
2023-03-20T02:55:16.145Z,4.37
2023-03-20T02:57:52.660Z,4.43
2023-03-20T03:00:29.026Z,4.46
2023-03-20T03:03:06.953Z,4.47
2023-03-20T03:05:39.639Z,4.40
2023-03-20T03:08:10.852Z,4.47
2023-03-20T03:10:45.804Z,4.28
2023-03-20T03:13:17.139Z,4.37
2023-03-20T03:15:48.055Z,4.40
2023-03-20T03:18:20.052Z,4.42
2023-03-20T03:20:52.226Z,4.24
2023-03-20T03:23:26.546Z,4.36
2023-03-20T03:25:57.606Z,4.32
2023-03-20T03:28:31.021Z,4.41
2023-03-20T03:31:00.244Z,4.38
2023-03-20T03:33:31.233Z,4.34
2023-03-20T03:36:10.375Z,3.92
2023-03-20T03:38:44.658Z,4.28
2023-03-20T03:41:23.450Z,4.23
2023-03-20T03:43:58.853Z,4.27
2023-03-20T03:46:35.819Z,4.27
2023-03-20T03:49:05.555Z,4.18
2023-03-20T03:51:36.253Z,3.85
2023-03-20T03:54:11.977Z,3.82
2023-03-20T03:56:44.790Z,3.87
2023-03-20T03:59:18.834Z,3.75
2023-03-20T04:01:47.795Z,3.83
2023-03-20T04:04:17.036Z,3.75
2023-03-20T04:06:44.954Z,3.73
2023-03-20T04:09:12.871Z,3.73
2023-03-20T04:11:42.158Z,3.76
2023-03-20T04:14:10.026Z,3.75
2023-03-20T04:16:37.939Z,3.65
2023-03-20T04:19:05.913Z,3.42
2023-03-20T04:21:33.773Z,3.32
2023-03-20T04:24:01.621Z,3.34
2023-03-20T04:26:29.477Z,3.18
2023-03-20T04:28:58.754Z,3.06
2023-03-20T04:31:26.780Z,3.18
2023-03-20T04:33:54.744Z,3.23
2023-03-20T04:36:22.642Z,2.96
2023-03-20T04:38:50.786Z,3.54
2023-03-20T04:41:21.154Z,3.76
2023-03-20T04:43:51.358Z,3.82
2023-03-20T04:46:20.605Z,3.76
2023-03-20T04:48:48.501Z,3.92
2023-03-20T04:51:16.338Z,4.17
2023-03-20T04:53:44.282Z,4.53
2023-03-20T04:56:17.125Z,4.86
2023-03-20T04:58:51.001Z,5.01
2023-03-20T05:01:23.389Z,5.30
2023-03-20T05:03:52.142Z,5.46
2023-03-20T05:06:23.276Z,5.14
2023-03-20T05:08:54.593Z,5.28
2023-03-20T05:11:24.952Z,5.30
2023-03-20T05:13:53.102Z,5.35
2023-03-20T05:16:22.680Z,5.58
2023-03-20T05:18:50.595Z,5.67
2023-03-20T05:21:18.446Z,5.68
2023-03-20T05:23:46.251Z,5.95
2023-03-20T05:26:14.073Z,5.95
2023-03-20T05:28:41.947Z,5.99
2023-03-20T05:31:10.232Z,6.01
2023-03-20T05:33:40.059Z,6.02
2023-03-20T05:36:09.517Z,5.88
2023-03-20T05:38:37.443Z,5.92
2023-03-20T05:41:05.791Z,5.93
2023-03-20T05:43:33.624Z,6.23
2023-03-20T05:46:02.302Z,6.25
2023-03-20T05:48:30.681Z,6.43
2023-03-20T05:50:59.953Z,6.82
2023-03-20T05:53:27.786Z,7.12
2023-03-20T05:55:59.859Z,7.26
2023-03-20T05:58:29.947Z,7.36
2023-03-20T06:01:13.086Z,7.12
2023-03-20T06:03:58.816Z,7.11
2023-03-20T06:07:28.545Z,7.55
2023-03-20T06:13:02.761Z,7.60
2023-03-20T06:15:32.837Z,7.78
2023-03-20T06:18:09.210Z,7.84
2023-03-20T06:20:39.730Z,8.03
2023-03-20T06:23:10.634Z,8.33
2023-03-20T06:25:41.036Z,8.43
2023-03-20T06:28:08.923Z,8.61
2023-03-20T06:30:38.008Z,8.53
2023-03-20T06:33:20.547Z,8.12
2023-03-20T06:36:00.264Z,7.94
2023-03-20T06:41:35.790Z,8.49
2023-03-20T06:44:04.953Z,8.63
2023-03-20T06:46:32.954Z,8.54
2023-03-20T06:49:04.028Z,8.76
2023-03-20T06:51:32.777Z,9.36
2023-03-20T06:54:00.996Z,9.21
2023-03-20T06:56:28.851Z,9.78
2023-03-20T06:58:58.214Z,10.21
2023-03-20T07:01:26.222Z,10.20
2023-03-20T07:03:55.056Z,10.54
2023-03-20T07:06:23.350Z,10.76
2023-03-20T07:08:51.596Z,10.47
2023-03-20T07:11:19.793Z,10.40
2023-03-20T07:13:49.830Z,10.62
2023-03-20T07:16:19.375Z,10.21
2023-03-20T07:18:47.413Z,10.39
2023-03-20T07:21:19.922Z,10.12
2023-03-20T07:23:47.934Z,10.97
2023-03-20T07:26:16.163Z,11.40
2023-03-20T07:28:44.027Z,11.43
2023-03-20T07:31:23.042Z,11.63
2023-03-20T07:33:51.829Z,11.22
2023-03-20T07:36:19.770Z,11.83
2023-03-20T07:38:47.631Z,11.42
2023-03-20T07:41:15.772Z,11.53
2023-03-20T07:43:44.865Z,11.50
2023-03-20T07:46:12.930Z,11.70
2023-03-20T07:48:42.243Z,12.50
2023-03-20T07:51:10.093Z,12.59
2023-03-20T07:53:38.475Z,13.11
2023-03-20T07:56:10.048Z,13.24
2023-03-20T07:58:38.409Z,13.49
2023-03-20T08:01:07.092Z,13.50
2023-03-20T08:03:35.132Z,13.69
2023-03-20T08:06:06.450Z,13.73
2023-03-20T08:08:34.856Z,13.95
2023-03-20T08:11:03.790Z,14.50
2023-03-20T08:13:32.402Z,15.13
2023-03-20T08:16:00.305Z,15.16
2023-03-20T08:18:28.220Z,14.32
2023-03-20T08:20:56.218Z,14.72
2023-03-20T08:23:25.849Z,15.29
2023-03-20T08:25:55.268Z,15.12
2023-03-20T08:28:36.368Z,14.99
2023-03-20T08:31:11.985Z,15.03
2023-03-20T08:33:39.908Z,15.26
2023-03-20T08:36:09.002Z,15.14
2023-03-20T08:38:39.498Z,15.28
2023-03-20T08:41:08.391Z,15.69
2023-03-20T08:43:36.484Z,16.20
2023-03-20T08:46:05.030Z,16.25
2023-03-20T08:48:33.404Z,16.34
2023-03-20T08:51:01.988Z,16.02
2023-03-20T08:53:29.930Z,16.42
2023-03-20T08:55:59.284Z,16.09
2023-03-20T08:58:27.355Z,15.88
2023-03-20T09:00:55.440Z,16.53
2023-03-20T09:03:23.975Z,17.32
2023-03-20T09:05:52.795Z,17.67
2023-03-20T09:08:21.126Z,17.90
2023-03-20T09:10:52.119Z,17.45
2023-03-20T09:13:27.616Z,17.22
2023-03-20T09:15:56.930Z,17.39
2023-03-20T09:18:25.449Z,17.72
2023-03-20T09:20:53.802Z,18.02
2023-03-20T09:23:21.976Z,18.39
2023-03-20T09:25:49.918Z,18.02
2023-03-20T09:28:17.790Z,18.32
2023-03-20T09:30:47.079Z,18.28
2023-03-20T09:33:15.612Z,17.61
2023-03-20T09:35:44.116Z,17.91
2023-03-20T09:38:12.601Z,17.55
2023-03-20T09:40:52.360Z,18.07
2023-03-20T09:43:29.986Z,18.53
2023-03-20T09:46:11.928Z,18.68
2023-03-20T09:48:46.233Z,18.54
2023-03-20T09:51:22.784Z,19.05
2023-03-20T09:53:59.925Z,19.08
2023-03-20T09:56:31.858Z,19.16
2023-03-20T09:59:02.495Z,18.96
2023-03-20T10:01:39.678Z,19.10
2023-03-20T10:04:11.066Z,18.92
2023-03-20T10:06:39.807Z,18.67
2023-03-20T10:09:17.679Z,18.73
2023-03-20T10:12:16.519Z,18.83
2023-03-20T10:14:54.622Z,19.44
2023-03-20T10:17:34.139Z,19.31
2023-03-20T10:20:13.593Z,19.85
2023-03-20T10:22:46.414Z,20.33
2023-03-20T10:25:24.977Z,20.00
2023-03-20T10:27:59.148Z,20.33
2023-03-20T10:30:35.198Z,20.34
2023-03-20T10:33:22.211Z,20.14
2023-03-20T10:36:02.975Z,19.31
2023-03-20T10:38:41.667Z,20.45
2023-03-20T10:41:15.528Z,20.46
2023-03-20T10:43:45.705Z,20.84
2023-03-20T10:46:17.787Z,21.32
2023-03-20T10:48:50.617Z,21.58
2023-03-20T10:51:21.058Z,21.61
2023-03-20T10:53:53.255Z,21.15
2023-03-20T10:56:29.092Z,20.69
2023-03-20T10:59:03.516Z,21.01
2023-03-20T11:01:33.315Z,21.51
2023-03-20T11:04:03.766Z,21.61
2023-03-20T11:06:34.931Z,22.39
2023-03-20T11:09:13.632Z,22.32
2023-03-20T11:11:44.610Z,22.06
2023-03-20T11:14:24.976Z,21.89
2023-03-20T11:17:08.165Z,22.58
2023-03-20T11:19:49.687Z,22.24
2023-03-20T11:22:41.367Z,22.01
2023-03-20T11:25:44.163Z,22.92
2023-03-20T11:28:45.861Z,22.47
2023-03-20T11:31:27.410Z,22.27
2023-03-20T11:34:24.154Z,23.06
2023-03-20T11:37:10.248Z,23.77
2023-03-20T11:40:12.703Z,23.92
2023-03-20T11:43:03.218Z,23.54
2023-03-20T11:45:45.483Z,22.58
2023-03-20T11:48:27.928Z,23.29
2023-03-20T11:51:03.816Z,24.45
2023-03-20T11:53:36.224Z,24.80
2023-03-20T11:56:17.990Z,24.77
2023-03-20T11:59:04.117Z,24.43
2023-03-20T12:01:52.276Z,25.15
2023-03-20T12:04:38.375Z,23.06
2023-03-20T12:07:24.595Z,24.08
2023-03-20T12:10:07.013Z,23.38
2023-03-20T12:12:42.136Z,25.55
2023-03-20T12:15:19.672Z,25.59
2023-03-20T12:17:56.861Z,25.63
2023-03-20T12:20:34.057Z,25.05
2023-03-20T12:23:12.127Z,25.38
2023-03-20T12:25:48.277Z,26.05
2023-03-20T12:28:25.304Z,26.06
2023-03-20T12:31:05.428Z,25.95
2023-03-20T12:33:42.130Z,25.87
2023-03-20T12:36:16.576Z,25.47
2023-03-20T12:38:46.227Z,24.92
2023-03-20T12:41:17.581Z,24.24
2023-03-20T12:44:05.630Z,25.19
2023-03-20T12:46:43.067Z,24.69
2023-03-20T12:49:21.099Z,25.22
2023-03-20T12:52:00.584Z,25.09
2023-03-20T12:54:43.024Z,25.49
2023-03-20T12:57:22.797Z,25.68
2023-03-20T13:00:14.492Z,24.94
2023-03-20T13:02:51.085Z,25.05
2023-03-20T13:05:31.171Z,24.71
2023-03-20T13:08:19.423Z,25.29
2023-03-20T13:10:57.253Z,24.89
2023-03-20T13:13:33.400Z,24.33
2023-03-20T13:16:13.087Z,24.13
2023-03-20T13:18:55.519Z,23.71
2023-03-20T13:21:30.191Z,23.91
2023-03-20T13:24:06.887Z,23.69
2023-03-20T13:26:39.994Z,23.63
2023-03-20T13:29:17.062Z,23.24
2023-03-20T13:31:54.291Z,23.14
2023-03-20T13:34:32.098Z,23.06
2023-03-20T13:37:26.379Z,22.75
2023-03-20T13:40:05.737Z,22.82
2023-03-20T13:42:39.757Z,22.69
2023-03-20T13:45:31.380Z,22.57
2023-03-20T13:48:04.514Z,22.72
2023-03-20T13:50:44.048Z,22.77
2023-03-20T13:53:25.828Z,22.55
2023-03-20T13:55:59.286Z,22.57
2023-03-20T13:58:56.362Z,22.66
2023-03-20T14:01:36.308Z,22.61
2023-03-20T14:04:05.994Z,22.38
2023-03-20T14:06:54.453Z,22.56
2023-03-20T14:09:31.371Z,22.38
2023-03-20T14:12:03.809Z,22.62
2023-03-20T14:14:33.942Z,22.62
2023-03-20T14:17:09.006Z,22.67
2023-03-20T14:19:39.136Z,22.67
2023-03-20T14:22:08.091Z,22.74
2023-03-20T14:24:38.237Z,22.64
2023-03-20T14:27:06.770Z,22.71
2023-03-20T14:29:39.619Z,22.35
2023-03-20T14:32:35.650Z,22.47
2023-03-20T14:35:24.112Z,22.37
2023-03-20T14:38:16.905Z,22.32
2023-03-20T14:40:54.755Z,22.30
2023-03-20T14:43:39.901Z,22.27
2023-03-20T14:46:16.962Z,22.29
2023-03-20T14:48:49.677Z,21.93
2023-03-20T14:51:29.784Z,21.95
2023-03-20T14:53:58.760Z,21.94
2023-03-20T14:56:30.304Z,21.91
2023-03-20T14:59:02.509Z,21.70
2023-03-20T15:01:48.978Z,21.57
2023-03-20T15:04:30.107Z,21.34
2023-03-20T15:07:01.804Z,21.42
2023-03-20T15:09:33.082Z,21.36
2023-03-20T15:12:04.484Z,21.27
2023-03-20T15:14:41.844Z,21.33
2023-03-20T15:17:18.684Z,21.31
2023-03-20T15:19:50.498Z,21.23
2023-03-20T15:22:20.526Z,21.05
2023-03-20T15:24:56.108Z,21.15
2023-03-20T15:27:29.473Z,21.20
2023-03-20T15:29:58.600Z,20.90
2023-03-20T15:32:26.798Z,21.09
2023-03-20T15:34:56.744Z,21.07
2023-03-20T15:37:26.450Z,21.12
2023-03-20T15:39:56.967Z,21.23
2023-03-20T15:42:27.771Z,21.23
2023-03-20T15:44:56.859Z,20.80
2023-03-20T15:47:26.743Z,20.68
2023-03-20T15:49:58.207Z,21.08
2023-03-20T15:52:31.807Z,21.05
2023-03-20T15:55:03.652Z,20.93
2023-03-20T15:57:35.812Z,20.65
2023-03-20T16:00:06.333Z,20.47
2023-03-20T16:02:36.030Z,20.40
2023-03-20T16:05:10.528Z,20.28
2023-03-20T16:07:38.479Z,20.20
2023-03-20T16:10:17.776Z,20.17
2023-03-20T16:12:49.549Z,20.07
2023-03-20T16:15:18.632Z,19.83
2023-03-20T16:17:47.811Z,19.78
2023-03-20T16:20:20.048Z,19.66
2023-03-20T16:22:52.594Z,19.53
2023-03-20T16:25:22.324Z,19.36
2023-03-20T16:27:52.889Z,19.17
2023-03-20T16:30:25.318Z,19.03
2023-03-20T16:32:59.766Z,19.00
2023-03-20T16:35:38.099Z,18.88
2023-03-20T16:38:17.378Z,18.82
2023-03-20T16:40:45.466Z,18.81
2023-03-20T16:43:17.132Z,18.76
2023-03-20T16:45:46.672Z,18.74
2023-03-20T16:48:36.126Z,18.65
2023-03-20T16:51:17.581Z,18.60
2023-03-20T16:53:47.986Z,18.60
2023-03-20T16:56:18.763Z,18.63
2023-03-20T16:58:47.203Z,18.64
2023-03-20T17:01:21.696Z,18.47
2023-03-20T17:03:53.675Z,18.02
2023-03-20T17:06:45.510Z,17.94
2023-03-20T17:09:26.848Z,17.86
2023-03-20T17:12:02.516Z,17.82
2023-03-20T17:14:30.684Z,17.49
2023-03-20T17:17:00.386Z,17.45
2023-03-20T17:19:28.362Z,17.39
2023-03-20T17:21:59.835Z,17.44
2023-03-20T17:24:27.822Z,17.29
2023-03-20T17:26:57.765Z,17.08
2023-03-20T17:29:25.739Z,16.87
2023-03-20T17:31:53.669Z,16.97
2023-03-20T17:34:21.577Z,17.05
2023-03-20T17:37:03.344Z,16.97
2023-03-20T17:39:32.857Z,16.72
2023-03-20T17:42:00.759Z,16.73
2023-03-20T17:44:28.899Z,16.61
2023-03-20T17:46:59.092Z,16.59
2023-03-20T17:49:28.312Z,16.58
2023-03-20T17:51:56.605Z,16.55
2023-03-20T17:54:24.561Z,16.50
2023-03-20T17:56:53.854Z,16.45
2023-03-20T17:59:21.815Z,16.31
2023-03-20T18:01:49.803Z,16.13
2023-03-20T18:04:19.842Z,15.99
2023-03-20T18:06:49.116Z,15.56
2023-03-20T18:09:17.460Z,15.72
2023-03-20T18:11:45.423Z,15.52
2023-03-20T18:14:18.022Z,15.32
2023-03-20T18:16:46.555Z,15.12
2023-03-20T18:19:25.785Z,15.14
2023-03-20T18:21:53.859Z,15.13
2023-03-20T18:24:22.129Z,15.07
2023-03-20T18:26:53.050Z,14.92
2023-03-20T18:29:22.412Z,14.64
2023-03-20T18:31:50.583Z,14.73
2023-03-20T18:34:21.269Z,14.93
2023-03-20T18:36:51.640Z,14.54
2023-03-20T18:39:20.761Z,14.66
2023-03-20T18:41:48.855Z,14.65
2023-03-20T18:44:17.673Z,14.57
2023-03-20T18:46:47.211Z,14.40
2023-03-20T18:49:17.256Z,14.28
2023-03-20T18:51:45.883Z,12.81
2023-03-20T18:54:13.956Z,13.87
2023-03-20T18:56:43.068Z,12.87
2023-03-20T18:59:13.810Z,13.88
2023-03-20T19:01:42.559Z,13.91
2023-03-20T19:04:12.055Z,13.87
2023-03-20T19:06:40.102Z,13.84
2023-03-20T19:09:09.984Z,13.86
2023-03-20T19:11:37.921Z,13.91
2023-03-20T19:14:05.785Z,13.89
2023-03-20T19:16:37.868Z,13.82
2023-03-20T19:19:08.827Z,13.29
2023-03-20T19:21:38.062Z,13.80
2023-03-20T19:24:07.703Z,13.84
2023-03-20T19:26:37.801Z,13.44
2023-03-20T19:29:09.596Z,13.83
2023-03-20T19:31:37.739Z,13.88
2023-03-20T19:34:06.795Z,13.84
2023-03-20T19:36:38.337Z,13.90
2023-03-20T19:39:08.623Z,13.63
2023-03-20T19:41:36.641Z,13.89
2023-03-20T19:44:06.593Z,12.37
2023-03-20T19:46:42.773Z,13.90
2023-03-20T19:49:18.625Z,14.06
2023-03-20T19:51:51.429Z,14.05
2023-03-20T19:54:20.889Z,14.03
2023-03-20T19:56:49.358Z,13.71
2023-03-20T19:59:17.412Z,13.99
2023-03-20T20:01:46.849Z,13.94
2023-03-20T20:04:16.238Z,13.93
2023-03-20T20:06:47.193Z,13.92
2023-03-20T20:09:24.026Z,13.42
2023-03-20T20:11:52.457Z,13.86
2023-03-20T20:14:26.431Z,13.65
2023-03-20T20:17:07.992Z,12.87
2023-03-20T20:19:49.501Z,13.60
2023-03-20T20:22:26.031Z,13.59
2023-03-20T20:24:56.334Z,13.60
2023-03-20T20:27:24.315Z,13.56
2023-03-20T20:29:57.488Z,13.28
2023-03-20T20:32:36.483Z,12.33
2023-03-20T20:35:41.837Z,13.51
2023-03-20T20:38:36.722Z,12.99
2023-03-20T20:40:46.729Z,13.00
2023-03-20T20:43:39.075Z,13.36
2023-03-20T20:46:03.121Z,13.31
2023-03-20T20:48:33.359Z,13.02
2023-03-20T20:51:04.473Z,13.22
2023-03-20T20:53:32.529Z,13.25
2023-03-20T20:56:01.854Z,13.14
2023-03-20T20:58:29.728Z,13.11
2023-03-20T21:00:58.488Z,13.15
2023-03-20T21:03:26.515Z,13.19
2023-03-20T21:05:54.394Z,13.19
2023-03-20T21:08:22.312Z,13.22
2023-03-20T21:10:50.945Z,13.23
2023-03-20T21:13:20.295Z,13.26
2023-03-20T21:15:48.481Z,13.32
2023-03-20T21:18:16.312Z,13.36
2023-03-20T21:20:44.185Z,13.38
2023-03-20T21:23:12.265Z,13.40
2023-03-20T21:25:44.669Z,13.31
2023-03-20T21:28:14.569Z,13.39
2023-03-20T21:31:04.218Z,13.26
2023-03-20T21:33:33.300Z,13.36
2023-03-20T21:36:01.326Z,13.27
2023-03-20T21:39:02.009Z,13.53
2023-03-20T21:41:17.555Z,13.54
2023-03-20T21:43:47.322Z,13.58
2023-03-20T21:49:55.523Z,13.50
2023-03-20T21:55:13.277Z,13.42
2023-03-20T22:03:18.362Z,13.03
2023-03-20T22:15:11.972Z,12.93
2023-03-20T22:23:43.293Z,12.95
2023-03-20T22:26:23.906Z,12.91
2023-03-20T22:29:21.192Z,12.92
2023-03-20T22:37:40.805Z,12.93
2023-03-20T22:40:29.186Z,12.91
2023-03-20T22:42:54.034Z,10.79
2023-03-20T22:47:49.124Z,12.91
2023-03-20T22:50:17.537Z,12.88
2023-03-20T22:52:49.400Z,12.50
2023-03-20T22:55:18.542Z,12.81
2023-03-20T22:58:03.966Z,12.76
2023-03-20T23:00:34.840Z,12.70
2023-03-20T23:03:17.255Z,12.64
2023-03-20T23:05:51.557Z,12.54
2023-03-20T23:08:21.300Z,12.09
2023-03-20T23:10:51.258Z,11.64
2023-03-20T23:13:22.382Z,12.38
2023-03-20T23:15:51.618Z,12.19
2023-03-20T23:18:19.506Z,12.24
2023-03-20T23:20:47.423Z,12.23
2023-03-20T23:23:17.782Z,12.31
2023-03-20T23:25:47.256Z,12.11
2023-03-20T23:28:15.237Z,12.30
2023-03-20T23:30:49.881Z,12.33
2023-03-20T23:33:24.588Z,12.37
2023-03-20T23:36:01.310Z,12.39
2023-03-20T23:38:37.062Z,12.40
2023-03-20T23:41:06.998Z,12.40
2023-03-20T23:43:34.886Z,12.36
2023-03-20T23:46:02.853Z,12.34
2023-03-20T23:48:30.833Z,12.32
2023-03-20T23:50:58.963Z,12.31
2023-03-20T23:53:27.224Z,12.28
2023-03-20T23:55:57.478Z,12.27
2023-03-20T23:58:28.491Z,12.19
